Arecibo, Puerto Rico
Current Conditions -  °F | °C
As of 6:50 PM on Saturday 22 Nov 2014 (Local Time) from TJBQ Reporting Station
Clear Clear  
Wind Chill: 24°   Ceiling: Unl
Heat Index: 24°   Visibility: 10mi
Dew Point: 22°   Wind: 10mph
Humidity: 89%   Direction: 100°E
Pressure: 29.99"   Gusts: 17mph
Location:  18.47°N, 66.71°W
Report Text: TJBQ 222250Z 10009G15KT 10SM SKC 24/22 A2999 RMK RWY08 ATIS Z
Loading
Personal Weather Stations






























Interactive Weather Map New forecast layout! Learn more

10-Day Weather Forecast

Advertisements
Track Severe Weather on mobile